sensor_id;sensor_type;location;lat;lon;timestamp;P1;durP1;ratioP1;P2;durP2;ratioP2
69034;SDS011;56091;55.756;37.412;2023-05-07T00:03:01;13.27;;;3.83;;
69034;SDS011;56091;55.756;37.412;2023-05-07T00:08:03;10.02;;;3.78;;
69034;SDS011;56091;55.756;37.412;2023-05-07T00:13:04;9.60;;;3.40;;
69034;SDS011;56091;55.756;37.412;2023-05-07T00:18:05;9.35;;;3.40;;
69034;SDS011;56091;55.756;37.412;2023-05-07T00:23:05;11.40;;;4.10;;
69034;SDS011;56091;55.756;37.412;2023-05-07T00:28:06;9.85;;;3.97;;
69034;SDS011;56091;55.756;37.412;2023-05-07T00:33:10;16.30;;;4.30;;
69034;SDS011;56091;55.756;37.412;2023-05-07T00:38:11;8.18;;;2.83;;
69034;SDS011;56091;55.756;37.412;2023-05-07T00:43:12;10.33;;;4.07;;
69034;SDS011;56091;55.756;37.412;2023-05-07T00:48:13;8.27;;;3.17;;
69034;SDS011;56091;55.756;37.412;2023-05-07T00:53:16;10.13;;;3.67;;
69034;SDS011;56091;55.756;37.412;2023-05-07T00:58:17;9.90;;;3.40;;
69034;SDS011;56091;55.756;37.412;2023-05-07T01:03:18;10.20;;;3.85;;
69034;SDS011;56091;55.756;37.412;2023-05-07T01:08:19;9.83;;;3.87;;
69034;SDS011;56091;55.756;37.412;2023-05-07T01:13:21;9.15;;;3.58;;
69034;SDS011;56091;55.756;37.412;2023-05-07T01:18:23;8.83;;;3.33;;
69034;SDS011;56091;55.756;37.412;2023-05-07T01:23:24;8.60;;;3.28;;
69034;SDS011;56091;55.756;37.412;2023-05-07T01:28:28;9.17;;;3.60;;
69034;SDS011;56091;55.756;37.412;2023-05-07T01:33:33;10.27;;;3.72;;
69034;SDS011;56091;55.756;37.412;2023-05-07T01:38:36;9.13;;;3.43;;
69034;SDS011;56091;55.756;37.412;2023-05-07T01:43:39;10.43;;;3.53;;
69034;SDS011;56091;55.756;37.412;2023-05-07T01:48:41;9.27;;;3.87;;
69034;SDS011;56091;55.756;37.412;2023-05-07T01:53:46;10.70;;;3.60;;
69034;SDS011;56091;55.756;37.412;2023-05-07T01:58:51;9.80;;;3.40;;
69034;SDS011;56091;55.756;37.412;2023-05-07T02:03:52;9.88;;;3.28;;
69034;SDS011;56091;55.756;37.412;2023-05-07T02:08:58;9.23;;;3.43;;
69034;SDS011;56091;55.756;37.412;2023-05-07T02:13:59;10.40;;;3.70;;
69034;SDS011;56091;55.756;37.412;2023-05-07T02:19:00;9.00;;;3.30;;
69034;SDS011;56091;55.756;37.412;2023-05-07T02:24:06;11.43;;;3.50;;
69034;SDS011;56091;55.756;37.412;2023-05-07T02:29:10;7.80;;;3.40;;
69034;SDS011;56091;55.756;37.412;2023-05-07T02:34:13;10.52;;;3.80;;
69034;SDS011;56091;55.756;37.412;2023-05-07T02:39:14;7.83;;;3.27;;
69034;SDS011;56091;55.756;37.412;2023-05-07T02:44:16;8.57;;;3.70;;
69034;SDS011;56091;55.756;37.412;2023-05-07T02:49:18;8.13;;;3.40;;
69034;SDS011;56091;55.756;37.412;2023-05-07T02:54:22;9.60;;;3.45;;
69034;SDS011;56091;55.756;37.412;2023-05-07T02:59:23;8.63;;;3.67;;
69034;SDS011;56091;55.756;37.412;2023-05-07T03:04:26;9.63;;;3.75;;
69034;SDS011;56091;55.756;37.412;2023-05-07T03:09:27;10.73;;;3.70;;
69034;SDS011;56091;55.756;37.412;2023-05-07T03:14:29;11.77;;;3.50;;
69034;SDS011;56091;55.756;37.412;2023-05-07T03:24:40;11.05;;;4.03;;
69034;SDS011;56091;55.756;37.412;2023-05-07T03:29:41;9.00;;;3.63;;
69034;SDS011;56091;55.756;37.412;2023-05-07T03:34:42;7.80;;;3.47;;
69034;SDS011;56091;55.756;37.412;2023-05-07T03:39:46;8.47;;;2.30;;
69034;SDS011;56091;55.756;37.412;2023-05-07T03:44:50;9.50;;;3.78;;
69034;SDS011;56091;55.756;37.412;2023-05-07T03:49:51;8.57;;;3.57;;
69034;SDS011;56091;55.756;37.412;2023-05-07T03:54:55;9.75;;;3.63;;
69034;SDS011;56091;55.756;37.412;2023-05-07T03:59:56;8.97;;;3.20;;
69034;SDS011;56091;55.756;37.412;2023-05-07T04:04:57;7.32;;;3.33;;
69034;SDS011;56091;55.756;37.412;2023-05-07T04:09:58;9.07;;;2.87;;
69034;SDS011;56091;55.756;37.412;2023-05-07T04:15:00;6.50;;;2.72;;
69034;SDS011;56091;55.756;37.412;2023-05-07T04:20:01;7.23;;;2.50;;
69034;SDS011;56091;55.756;37.412;2023-05-07T04:25:04;10.57;;;2.95;;
69034;SDS011;56091;55.756;37.412;2023-05-07T04:30:07;6.73;;;2.80;;
69034;SDS011;56091;55.756;37.412;2023-05-07T04:35:12;6.70;;;2.30;;
69034;SDS011;56091;55.756;37.412;2023-05-07T04:40:13;6.63;;;2.40;;
69034;SDS011;56091;55.756;37.412;2023-05-07T04:45:15;7.13;;;2.50;;
69034;SDS011;56091;55.756;37.412;2023-05-07T04:50:19;6.07;;;2.40;;
69034;SDS011;56091;55.756;37.412;2023-05-07T04:55:22;7.95;;;2.55;;
69034;SDS011;56091;55.756;37.412;2023-05-07T05:00:22;7.07;;;2.40;;
69034;SDS011;56091;55.756;37.412;2023-05-07T05:05:26;7.22;;;2.55;;
69034;SDS011;56091;55.756;37.412;2023-05-07T05:10:29;8.30;;;2.40;;
69034;SDS011;56091;55.756;37.412;2023-05-07T05:15:31;5.40;;;1.98;;
69034;SDS011;56091;55.756;37.412;2023-05-07T05:20:34;4.53;;;1.80;;
69034;SDS011;56091;55.756;37.412;2023-05-07T05:25:35;5.20;;;1.88;;
69034;SDS011;56091;55.756;37.412;2023-05-07T05:30:38;5.00;;;1.80;;
69034;SDS011;56091;55.756;37.412;2023-05-07T05:35:44;4.40;;;1.50;;
69034;SDS011;56091;55.756;37.412;2023-05-07T05:40:50;5.97;;;2.27;;
69034;SDS011;56091;55.756;37.412;2023-05-07T05:45:51;5.97;;;2.00;;
69034;SDS011;56091;55.756;37.412;2023-05-07T05:50:53;5.30;;;2.10;;
69034;SDS011;56091;55.756;37.412;2023-05-07T05:55:53;5.50;;;1.90;;
69034;SDS011;56091;55.756;37.412;2023-05-07T06:00:55;5.10;;;1.60;;
69034;SDS011;56091;55.756;37.412;2023-05-07T06:05:59;6.05;;;1.98;;
69034;SDS011;56091;55.756;37.412;2023-05-07T06:11:01;4.70;;;1.87;;
69034;SDS011;56091;55.756;37.412;2023-05-07T06:16:04;5.80;;;1.90;;
69034;SDS011;56091;55.756;37.412;2023-05-07T06:21:06;4.37;;;1.80;;
69034;SDS011;56091;55.756;37.412;2023-05-07T06:26:08;6.47;;;2.28;;
69034;SDS011;56091;55.756;37.412;2023-05-07T06:31:15;6.47;;;2.20;;
69034;SDS011;56091;55.756;37.412;2023-05-07T06:36:21;6.40;;;2.10;;
69034;SDS011;56091;55.756;37.412;2023-05-07T06:41:22;5.30;;;2.10;;
69034;SDS011;56091;55.756;37.412;2023-05-07T06:46:23;4.43;;;1.75;;
69034;SDS011;56091;55.756;37.412;2023-05-07T06:51:27;5.33;;;2.00;;
69034;SDS011;56091;55.756;37.412;2023-05-07T06:56:30;6.45;;;1.95;;
69034;SDS011;56091;55.756;37.412;2023-05-07T07:01:31;4.47;;;1.90;;
69034;SDS011;56091;55.756;37.412;2023-05-07T07:06:33;7.78;;;2.30;;
69034;SDS011;56091;55.756;37.412;2023-05-07T07:11:37;7.03;;;1.97;;
69034;SDS011;56091;55.756;37.412;2023-05-07T07:16:39;5.30;;;1.85;;
69034;SDS011;56091;55.756;37.412;2023-05-07T07:21:40;6.83;;;2.40;;
69034;SDS011;56091;55.756;37.412;2023-05-07T07:26:43;4.47;;;1.83;;
69034;SDS011;56091;55.756;37.412;2023-05-07T07:31:44;4.70;;;1.73;;
69034;SDS011;56091;55.756;37.412;2023-05-07T07:36:45;4.55;;;1.80;;
69034;SDS011;56091;55.756;37.412;2023-05-07T07:41:46;5.20;;;1.97;;
69034;SDS011;56091;55.756;37.412;2023-05-07T07:46:47;5.22;;;2.00;;
69034;SDS011;56091;55.756;37.412;2023-05-07T07:51:48;5.07;;;1.83;;
69034;SDS011;56091;55.756;37.412;2023-05-07T07:56:50;3.83;;;1.60;;
69034;SDS011;56091;55.756;37.412;2023-05-07T08:01:52;5.43;;;1.80;;
69034;SDS011;56091;55.756;37.412;2023-05-07T08:06:56;4.05;;;1.65;;
69034;SDS011;56091;55.756;37.412;2023-05-07T08:11:58;5.67;;;2.10;;
69034;SDS011;56091;55.756;37.412;2023-05-07T08:16:59;4.38;;;1.60;;
69034;SDS011;56091;55.756;37.412;2023-05-07T08:22:02;6.17;;;1.80;;
69034;SDS011;56091;55.756;37.412;2023-05-07T08:27:05;7.50;;;2.15;;
69034;SDS011;56091;55.756;37.412;2023-05-07T08:32:06;4.40;;;1.80;;
69034;SDS011;56091;55.756;37.412;2023-05-07T08:37:07;5.32;;;1.80;;
69034;SDS011;56091;55.756;37.412;2023-05-07T08:42:09;4.57;;;1.67;;
69034;SDS011;56091;55.756;37.412;2023-05-07T08:47:12;5.00;;;1.70;;
69034;SDS011;56091;55.756;37.412;2023-05-07T08:52:14;5.47;;;1.80;;
69034;SDS011;56091;55.756;37.412;2023-05-07T08:57:15;5.07;;;1.60;;
69034;SDS011;56091;55.756;37.412;2023-05-07T09:02:17;3.10;;;1.40;;
69034;SDS011;56091;55.756;37.412;2023-05-07T09:07:19;3.40;;;1.45;;
69034;SDS011;56091;55.756;37.412;2023-05-07T09:12:21;4.30;;;1.60;;
69034;SDS011;56091;55.756;37.412;2023-05-07T09:17:22;5.15;;;1.80;;
69034;SDS011;56091;55.756;37.412;2023-05-07T09:22:23;7.03;;;1.90;;
69034;SDS011;56091;55.756;37.412;2023-05-07T09:27:31;4.80;;;1.80;;
69034;SDS011;56091;55.756;37.412;2023-05-07T09:32:36;4.13;;;1.70;;
69034;SDS011;56091;55.756;37.412;2023-05-07T09:37:45;4.63;;;1.70;;
69034;SDS011;56091;55.756;37.412;2023-05-07T09:42:46;5.70;;;1.90;;
69034;SDS011;56091;55.756;37.412;2023-05-07T09:47:48;7.57;;;1.70;;
69034;SDS011;56091;55.756;37.412;2023-05-07T09:52:54;4.53;;;1.60;;
69034;SDS011;56091;55.756;37.412;2023-05-07T09:57:57;5.22;;;1.83;;
69034;SDS011;56091;55.756;37.412;2023-05-07T10:03:01;9.53;;;2.17;;
69034;SDS011;56091;55.756;37.412;2023-05-07T10:08:22;5.72;;;1.70;;
69034;SDS011;56091;55.756;37.412;2023-05-07T10:13:27;5.10;;;2.00;;
69034;SDS011;56091;55.756;37.412;2023-05-07T10:18:31;4.70;;;2.00;;
69034;SDS011;56091;55.756;37.412;2023-05-07T10:23:38;6.50;;;2.03;;
69034;SDS011;56091;55.756;37.412;2023-05-07T10:28:41;4.60;;;2.08;;
69034;SDS011;56091;55.756;37.412;2023-05-07T10:33:47;3.97;;;1.63;;
69034;SDS011;56091;55.756;37.412;2023-05-07T10:38:53;4.13;;;1.80;;
69034;SDS011;56091;55.756;37.412;2023-05-07T10:43:55;7.80;;;1.80;;
69034;SDS011;56091;55.756;37.412;2023-05-07T11:04:30;7.07;;;1.80;;
69034;SDS011;56091;55.756;37.412;2023-05-07T11:09:56;4.43;;;1.75;;
69034;SDS011;56091;55.756;37.412;2023-05-07T11:15:34;5.40;;;1.80;;
69034;SDS011;56091;55.756;37.412;2023-05-07T11:26:03;5.63;;;1.87;;
69034;SDS011;56091;55.756;37.412;2023-05-07T11:31:06;5.10;;;2.10;;
69034;SDS011;56091;55.756;37.412;2023-05-07T11:36:08;4.10;;;1.70;;
69034;SDS011;56091;55.756;37.412;2023-05-07T11:41:16;6.25;;;1.75;;
69034;SDS011;56091;55.756;37.412;2023-05-07T11:46:17;5.07;;;2.03;;
69034;SDS011;56091;55.756;37.412;2023-05-07T11:51:18;6.55;;;2.17;;
69034;SDS011;56091;55.756;37.412;2023-05-07T11:56:21;5.70;;;2.20;;
69034;SDS011;56091;55.756;37.412;2023-05-07T12:01:22;5.43;;;1.95;;
69034;SDS011;56091;55.756;37.412;2023-05-07T12:06:23;5.77;;;2.07;;
69034;SDS011;56091;55.756;37.412;2023-05-07T12:11:24;4.87;;;1.97;;
69034;SDS011;56091;55.756;37.412;2023-05-07T12:16:26;4.82;;;2.00;;
69034;SDS011;56091;55.756;37.412;2023-05-07T12:21:28;6.20;;;2.00;;
69034;SDS011;56091;55.756;37.412;2023-05-07T12:26:30;5.50;;;1.95;;
69034;SDS011;56091;55.756;37.412;2023-05-07T12:31:30;5.00;;;2.00;;
69034;SDS011;56091;55.756;37.412;2023-05-07T12:36:38;6.28;;;1.90;;
69034;SDS011;56091;55.756;37.412;2023-05-07T12:41:58;5.43;;;1.80;;
69034;SDS011;56091;55.756;37.412;2023-05-07T12:47:03;5.80;;;2.25;;
69034;SDS011;56091;55.756;37.412;2023-05-07T12:52:04;5.40;;;2.53;;
69034;SDS011;56091;55.756;37.412;2023-05-07T12:57:06;5.50;;;2.30;;
69034;SDS011;56091;55.756;37.412;2023-05-07T13:02:09;6.03;;;2.10;;
69034;SDS011;56091;55.756;37.412;2023-05-07T13:07:14;4.25;;;1.50;;
69034;SDS011;56091;55.756;37.412;2023-05-07T13:12:15;6.33;;;2.10;;
69034;SDS011;56091;55.756;37.412;2023-05-07T13:17:16;5.22;;;2.00;;
69034;SDS011;56091;55.756;37.412;2023-05-07T13:22:18;5.73;;;1.67;;
69034;SDS011;56091;55.756;37.412;2023-05-07T13:27:20;4.53;;;1.95;;
69034;SDS011;56091;55.756;37.412;2023-05-07T13:32:23;5.77;;;1.90;;
69034;SDS011;56091;55.756;37.412;2023-05-07T13:37:24;6.50;;;2.17;;
69034;SDS011;56091;55.756;37.412;2023-05-07T13:42:25;4.95;;;2.10;;
69034;SDS011;56091;55.756;37.412;2023-05-07T13:47:25;5.50;;;2.33;;
69034;SDS011;56091;55.756;37.412;2023-05-07T13:52:27;6.95;;;2.58;;
69034;SDS011;56091;55.756;37.412;2023-05-07T13:57:28;6.93;;;5.00;;
69034;SDS011;56091;55.756;37.412;2023-05-07T14:02:28;7.80;;;4.78;;
69034;SDS011;56091;55.756;37.412;2023-05-07T14:07:29;6.77;;;2.20;;
69034;SDS011;56091;55.756;37.412;2023-05-07T14:12:33;5.43;;;2.13;;
69034;SDS011;56091;55.756;37.412;2023-05-07T14:17:34;5.23;;;2.00;;
69034;SDS011;56091;55.756;37.412;2023-05-07T14:22:35;6.18;;;2.30;;
69034;SDS011;56091;55.756;37.412;2023-05-07T14:27:38;11.03;;;2.10;;
69034;SDS011;56091;55.756;37.412;2023-05-07T14:32:39;5.15;;;2.00;;
69034;SDS011;56091;55.756;37.412;2023-05-07T14:37:40;6.00;;;1.80;;
69034;SDS011;56091;55.756;37.412;2023-05-07T14:42:41;5.35;;;2.10;;
69034;SDS011;56091;55.756;37.412;2023-05-07T14:47:41;6.13;;;1.97;;
69034;SDS011;56091;55.756;37.412;2023-05-07T14:52:42;8.70;;;1.90;;
69034;SDS011;56091;55.756;37.412;2023-05-07T14:57:43;6.03;;;1.93;;
69034;SDS011;56091;55.756;37.412;2023-05-07T15:02:59;5.53;;;2.20;;
69034;SDS011;56091;55.756;37.412;2023-05-07T15:08:05;4.63;;;1.83;;
69034;SDS011;56091;55.756;37.412;2023-05-07T15:13:07;8.43;;;1.80;;
69034;SDS011;56091;55.756;37.412;2023-05-07T15:18:14;4.10;;;1.33;;
69034;SDS011;56091;55.756;37.412;2023-05-07T15:23:17;5.13;;;2.00;;
69034;SDS011;56091;55.756;37.412;2023-05-07T15:28:21;5.20;;;2.00;;
69034;SDS011;56091;55.756;37.412;2023-05-07T15:33:25;5.70;;;1.80;;
69034;SDS011;56091;55.756;37.412;2023-05-07T15:38:26;6.17;;;2.00;;
69034;SDS011;56091;55.756;37.412;2023-05-07T15:43:27;5.88;;;1.90;;
69034;SDS011;56091;55.756;37.412;2023-05-07T15:48:29;5.67;;;1.93;;
69034;SDS011;56091;55.756;37.412;2023-05-07T15:53:32;5.80;;;2.00;;
69034;SDS011;56091;55.756;37.412;2023-05-07T15:58:34;5.50;;;1.70;;
69034;SDS011;56091;55.756;37.412;2023-05-07T16:03:35;5.65;;;2.00;;
69034;SDS011;56091;55.756;37.412;2023-05-07T16:08:36;5.37;;;2.10;;
69034;SDS011;56091;55.756;37.412;2023-05-07T16:13:40;5.18;;;2.00;;
69034;SDS011;56091;55.756;37.412;2023-05-07T16:18:41;6.13;;;2.03;;
69034;SDS011;56091;55.756;37.412;2023-05-07T16:23:42;6.38;;;2.20;;
69034;SDS011;56091;55.756;37.412;2023-05-07T16:28:43;6.33;;;2.40;;
69034;SDS011;56091;55.756;37.412;2023-05-07T16:33:44;5.77;;;2.10;;
69034;SDS011;56091;55.756;37.412;2023-05-07T16:38:48;5.03;;;2.00;;
69034;SDS011;56091;55.756;37.412;2023-05-07T16:43:48;6.13;;;1.80;;
69034;SDS011;56091;55.756;37.412;2023-05-07T16:48:49;6.97;;;1.90;;
69034;SDS011;56091;55.756;37.412;2023-05-07T16:53:50;4.97;;;1.77;;
69034;SDS011;56091;55.756;37.412;2023-05-07T16:58:51;8.23;;;2.10;;
69034;SDS011;56091;55.756;37.412;2023-05-07T17:03:52;6.83;;;2.40;;
69034;SDS011;56091;55.756;37.412;2023-05-07T17:08:53;6.07;;;2.22;;
69034;SDS011;56091;55.756;37.412;2023-05-07T17:13:53;8.63;;;2.30;;
69034;SDS011;56091;55.756;37.412;2023-05-07T17:18:55;7.63;;;2.40;;
69034;SDS011;56091;55.756;37.412;2023-05-07T17:23:56;7.07;;;2.80;;
69034;SDS011;56091;55.756;37.412;2023-05-07T17:28:56;8.27;;;2.63;;
69034;SDS011;56091;55.756;37.412;2023-05-07T17:33:57;6.10;;;2.33;;
69034;SDS011;56091;55.756;37.412;2023-05-07T17:38:58;7.40;;;2.53;;
69034;SDS011;56091;55.756;37.412;2023-05-07T17:43:59;6.88;;;2.17;;
69034;SDS011;56091;55.756;37.412;2023-05-07T17:49:00;6.60;;;2.30;;
69034;SDS011;56091;55.756;37.412;2023-05-07T17:54:00;10.95;;;2.47;;
69034;SDS011;56091;55.756;37.412;2023-05-07T17:59:04;9.47;;;3.17;;
69034;SDS011;56091;55.756;37.412;2023-05-07T18:04:07;10.30;;;3.28;;
69034;SDS011;56091;55.756;37.412;2023-05-07T18:09:08;8.23;;;3.10;;
69034;SDS011;56091;55.756;37.412;2023-05-07T18:14:09;11.82;;;3.10;;
69034;SDS011;56091;55.756;37.412;2023-05-07T18:19:09;10.70;;;3.05;;
69034;SDS011;56091;55.756;37.412;2023-05-07T18:24:11;12.80;;;3.05;;
69034;SDS011;56091;55.756;37.412;2023-05-07T18:29:12;18.45;;;3.08;;
69034;SDS011;56091;55.756;37.412;2023-05-07T18:34:13;12.53;;;2.93;;
69034;SDS011;56091;55.756;37.412;2023-05-07T18:39:13;10.57;;;3.15;;
69034;SDS011;56091;55.756;37.412;2023-05-07T18:44:14;18.43;;;3.57;;
69034;SDS011;56091;55.756;37.412;2023-05-07T18:49:16;9.15;;;3.10;;
69034;SDS011;56091;55.756;37.412;2023-05-07T18:54:17;10.50;;;3.77;;
69034;SDS011;56091;55.756;37.412;2023-05-07T18:59:18;11.38;;;2.97;;
69034;SDS011;56091;55.756;37.412;2023-05-07T19:04:19;12.30;;;4.00;;
69034;SDS011;56091;55.756;37.412;2023-05-07T19:09:19;16.10;;;4.03;;
69034;SDS011;56091;55.756;37.412;2023-05-07T19:14:20;13.83;;;4.77;;
69034;SDS011;56091;55.756;37.412;2023-05-07T19:19:21;10.63;;;4.13;;
69034;SDS011;56091;55.756;37.412;2023-05-07T19:24:22;8.55;;;3.55;;
69034;SDS011;56091;55.756;37.412;2023-05-07T19:29:23;9.57;;;3.20;;
69034;SDS011;56091;55.756;37.412;2023-05-07T19:34:24;10.45;;;3.45;;
69034;SDS011;56091;55.756;37.412;2023-05-07T19:39:25;9.97;;;3.63;;
69034;SDS011;56091;55.756;37.412;2023-05-07T19:44:26;11.15;;;3.60;;
69034;SDS011;56091;55.756;37.412;2023-05-07T19:49:27;11.00;;;3.80;;
69034;SDS011;56091;55.756;37.412;2023-05-07T19:54:31;10.40;;;3.85;;
69034;SDS011;56091;55.756;37.412;2023-05-07T19:59:32;13.57;;;4.40;;
69034;SDS011;56091;55.756;37.412;2023-05-07T20:04:32;15.23;;;4.35;;
69034;SDS011;56091;55.756;37.412;2023-05-07T20:09:37;13.53;;;4.23;;
69034;SDS011;56091;55.756;37.412;2023-05-07T20:14:39;11.98;;;4.00;;
69034;SDS011;56091;55.756;37.412;2023-05-07T20:19:40;16.60;;;4.27;;
69034;SDS011;56091;55.756;37.412;2023-05-07T20:24:41;16.35;;;4.10;;
69034;SDS011;56091;55.756;37.412;2023-05-07T20:29:41;9.60;;;3.70;;
69034;SDS011;56091;55.756;37.412;2023-05-07T20:34:45;9.43;;;4.03;;
69034;SDS011;56091;55.756;37.412;2023-05-07T20:39:46;11.80;;;4.63;;
69034;SDS011;56091;55.756;37.412;2023-05-07T20:44:47;13.80;;;4.50;;
69034;SDS011;56091;55.756;37.412;2023-05-07T20:49:51;13.05;;;4.70;;
69034;SDS011;56091;55.756;37.412;2023-05-07T20:54:52;14.23;;;4.20;;
69034;SDS011;56091;55.756;37.412;2023-05-07T20:59:53;10.82;;;4.07;;
69034;SDS011;56091;55.756;37.412;2023-05-07T21:04:54;10.07;;;4.37;;
69034;SDS011;56091;55.756;37.412;2023-05-07T21:09:54;10.40;;;4.30;;
69034;SDS011;56091;55.756;37.412;2023-05-07T21:14:58;12.20;;;4.60;;
69034;SDS011;56091;55.756;37.412;2023-05-07T21:19:58;11.47;;;5.10;;
69034;SDS011;56091;55.756;37.412;2023-05-07T21:24:59;17.10;;;5.40;;
69034;SDS011;56091;55.756;37.412;2023-05-07T21:30:00;15.80;;;5.03;;
69034;SDS011;56091;55.756;37.412;2023-05-07T21:35:05;12.90;;;5.28;;
69034;SDS011;56091;55.756;37.412;2023-05-07T21:40:07;13.23;;;5.00;;
69034;SDS011;56091;55.756;37.412;2023-05-07T21:45:09;9.15;;;4.20;;
69034;SDS011;56091;55.756;37.412;2023-05-07T21:50:10;11.00;;;4.60;;
69034;SDS011;56091;55.756;37.412;2023-05-07T21:55:12;9.27;;;4.18;;
69034;SDS011;56091;55.756;37.412;2023-05-07T22:00:13;9.60;;;4.20;;
69034;SDS011;56091;55.756;37.412;2023-05-07T22:05:16;13.73;;;5.00;;
69034;SDS011;56091;55.756;37.412;2023-05-07T22:10:17;15.30;;;5.27;;
69034;SDS011;56091;55.756;37.412;2023-05-07T22:15:24;12.02;;;5.20;;
69034;SDS011;56091;55.756;37.412;2023-05-07T22:20:25;19.07;;;5.23;;
69034;SDS011;56091;55.756;37.412;2023-05-07T22:25:30;17.00;;;5.63;;
69034;SDS011;56091;55.756;37.412;2023-05-07T22:30:32;12.53;;;5.30;;
69034;SDS011;56091;55.756;37.412;2023-05-07T22:35:40;14.52;;;5.75;;
69034;SDS011;56091;55.756;37.412;2023-05-07T22:40:41;14.30;;;5.37;;
69034;SDS011;56091;55.756;37.412;2023-05-07T22:45:42;21.10;;;6.00;;
69034;SDS011;56091;55.756;37.412;2023-05-07T22:50:43;16.13;;;6.10;;
69034;SDS011;56091;55.756;37.412;2023-05-07T22:55:44;12.98;;;5.47;;
69034;SDS011;56091;55.756;37.412;2023-05-07T23:00:45;14.10;;;6.07;;
69034;SDS011;56091;55.756;37.412;2023-05-07T23:05:46;15.30;;;5.72;;
69034;SDS011;56091;55.756;37.412;2023-05-07T23:10:47;10.20;;;4.63;;
69034;SDS011;56091;55.756;37.412;2023-05-07T23:15:48;11.33;;;4.30;;
69034;SDS011;56091;55.756;37.412;2023-05-07T23:20:50;11.63;;;3.92;;
69034;SDS011;56091;55.756;37.412;2023-05-07T23:25:51;9.77;;;3.70;;
69034;SDS011;56091;55.756;37.412;2023-05-07T23:30:52;10.63;;;4.25;;
69034;SDS011;56091;55.756;37.412;2023-05-07T23:35:59;11.57;;;3.93;;
69034;SDS011;56091;55.756;37.412;2023-05-07T23:41:01;10.57;;;4.10;;
69034;SDS011;56091;55.756;37.412;2023-05-07T23:46:02;8.77;;;4.40;;
69034;SDS011;56091;55.756;37.412;2023-05-07T23:51:03;8.77;;;3.88;;
69034;SDS011;56091;55.756;37.412;2023-05-07T23:56:05;13.30;;;4.93;;
